Aérodrome :
LOGIN :

S'inscrire | Disclaimer

   EN    FR    IT 

 










Légende :    VFR   VFR Marginal   IFR   IFR Intensif   IFR Très Intensif
Visi : 
Plafond : 
>= 8 km
>= 3000ft
5 à 8 km
1000 à 3000 ft
1500m à 5 km
500 à 1000 ft
800 à 1500m
200 à 500 ft
< 800m
< 200 ft
Symboles :   Orages  Brouillard  Fortes neiges  Fortes précipitations  Vent > 20 kt
SIGMETs :   Divers  Orages  Givrage  Turbulence  Onde Orograph.  Cendres Volcan.







- Altitude de l'aérodrome : 1585 ft
- Code IATA : SIR


LSGS - Sion

DERNIER METAR :
  • 242250Z AUTO 30005KT 200V330 CAVOK 18/08 Q1014

METARs EXPIRÉS :
  • 242220Z AUTO 00000KT 9999 NCD 18/08 Q1014
  • 242150Z AUTO 26005KT 230V290 9999 BKN090 18/09 Q1014
  • 242120Z AUTO 23005KT 180V280 9999 BKN090 19/08 Q1013
  • 242050Z AUTO 22007KT 190V260 9999 OVC130 19/08 Q1013
  • 242020Z AUTO 23008KT 9999 SCT090 OVC130 20/08 Q1013

TAF TAF LSGS
Valide du 24 à 15h jusqu'au 25 à 00h UTC


241425Z 2415/2424 24012KT 9999 SCT080
BECMG 2420/2422 VRB03KT
Pas de NOTAMs connus pour ce terrain.



MET'MAP, la Météo Aéronautique d'un coup d'oeil ! - Copyright ORBIFLY Décembre 2007 - Disclaimer

ORBIFLY MET'MAP TEAM :

Programmation & Développement : Alexandra Zaïnal
Conception & Développement : Baudouin d'Aumeries
Co-Programmation & Développement : Marc-Olivier Méhu
Soutien technique & logistique : Manuel Goepfert

Contact : metmap@orbifly.com




SOURCES & CREDITS :

   NOAA